createdAt,value
2017-12-21T00:00:28.733Z,18.70
2017-12-21T00:01:33.724Z,18.70
2017-12-21T00:02:38.717Z,18.70
2017-12-21T00:03:45.027Z,18.70
2017-12-21T00:04:50.087Z,18.70
2017-12-21T00:05:55.173Z,18.70
2017-12-21T00:07:00.215Z,18.70
2017-12-21T00:08:05.591Z,18.70
2017-12-21T00:09:10.571Z,18.70
2017-12-21T00:10:15.463Z,18.70
2017-12-21T00:11:20.385Z,18.70
2017-12-21T00:12:25.445Z,18.70
2017-12-21T00:13:30.260Z,18.70
2017-12-21T00:14:35.506Z,18.70
2017-12-21T00:15:40.514Z,18.70
2017-12-21T00:16:45.431Z,18.70
2017-12-21T00:17:50.313Z,18.70
2017-12-21T00:18:56.363Z,18.70
2017-12-21T00:20:01.459Z,18.70
2017-12-21T00:21:06.353Z,18.70
2017-12-21T00:22:11.183Z,18.70
2017-12-21T00:23:16.016Z,18.70
2017-12-21T00:24:21.046Z,18.70
2017-12-21T00:25:29.055Z,18.70
2017-12-21T00:26:33.842Z,18.70
2017-12-21T00:27:38.884Z,18.70
2017-12-21T00:28:44.066Z,18.70
2017-12-21T00:29:49.109Z,18.70
2017-12-21T00:30:54.098Z,18.70
2017-12-21T00:31:59.056Z,18.60
2017-12-21T00:33:05.148Z,18.70
2017-12-21T00:34:10.170Z,18.60
2017-12-21T00:35:15.029Z,18.70
2017-12-21T00:36:20.102Z,18.60
2017-12-21T00:37:24.950Z,18.60
2017-12-21T00:38:29.916Z,18.60
2017-12-21T00:39:34.796Z,18.60
2017-12-21T00:40:39.674Z,18.60
2017-12-21T00:41:44.476Z,18.60
2017-12-21T00:42:49.433Z,18.60
2017-12-21T00:43:54.353Z,18.60
2017-12-21T00:44:59.302Z,18.60
2017-12-21T00:46:04.225Z,18.60
2017-12-21T00:47:09.221Z,18.60
2017-12-21T00:48:14.094Z,18.50
2017-12-21T00:49:19.125Z,18.50
2017-12-21T00:50:23.883Z,18.50
2017-12-21T00:51:30.022Z,18.50
2017-12-21T00:52:34.983Z,18.50
2017-12-21T00:53:40.078Z,18.50
2017-12-21T00:54:44.992Z,18.50
2017-12-21T00:55:49.795Z,18.50
2017-12-21T00:56:54.737Z,18.50
2017-12-21T00:57:59.462Z,18.50
2017-12-21T00:59:04.186Z,18.50
2017-12-21T01:00:08.958Z,18.50
2017-12-21T01:01:13.702Z,18.50
2017-12-21T01:02:18.432Z,18.40
2017-12-21T01:03:23.142Z,18.40
2017-12-21T01:04:27.912Z,18.40
2017-12-21T01:05:32.672Z,18.40
2017-12-21T01:06:37.694Z,18.40
2017-12-21T01:07:42.643Z,18.40
2017-12-21T01:08:47.386Z,18.40
2017-12-21T01:09:53.446Z,18.40
2017-12-21T01:10:58.335Z,18.40
2017-12-21T01:12:03.476Z,18.40
2017-12-21T01:13:08.510Z,18.40
2017-12-21T01:14:13.560Z,18.40
2017-12-21T01:15:18.642Z,18.40
2017-12-21T01:16:23.376Z,18.30
2017-12-21T01:17:28.417Z,18.30
2017-12-21T01:18:33.476Z,18.30
2017-12-21T01:19:38.479Z,18.30
2017-12-21T01:20:43.553Z,18.30
2017-12-21T01:21:48.380Z,18.30
2017-12-21T01:22:53.408Z,18.30
2017-12-21T01:23:58.316Z,18.30
2017-12-21T01:25:03.184Z,18.30
2017-12-21T01:26:07.951Z,18.30
2017-12-21T01:27:12.782Z,18.30
2017-12-21T01:28:18.503Z,18.30
2017-12-21T01:29:23.461Z,18.30
2017-12-21T01:30:28.376Z,18.30
2017-12-21T01:31:33.018Z,18.30
2017-12-21T01:32:37.833Z,18.30
2017-12-21T01:33:42.849Z,18.30
2017-12-21T01:34:47.803Z,18.20
2017-12-21T01:35:52.587Z,18.20
2017-12-21T01:36:57.641Z,18.20
2017-12-21T01:38:02.646Z,18.20
2017-12-21T01:39:07.606Z,18.30
2017-12-21T01:40:12.472Z,18.20
2017-12-21T01:41:17.399Z,18.20
2017-12-21T01:42:22.151Z,18.20
2017-12-21T01:43:27.063Z,18.20
2017-12-21T01:44:31.745Z,18.20
2017-12-21T01:45:36.508Z,18.20
2017-12-21T01:46:42.072Z,18.20
2017-12-21T01:47:46.988Z,18.20
2017-12-21T01:48:51.846Z,18.20
2017-12-21T01:49:56.786Z,18.20
2017-12-21T01:51:01.730Z,18.20
2017-12-21T01:52:06.817Z,18.20
2017-12-21T01:53:11.562Z,18.20
2017-12-21T01:54:16.366Z,18.20
2017-12-21T01:55:21.143Z,18.20
2017-12-21T01:56:26.141Z,18.20
2017-12-21T01:57:30.886Z,18.20
2017-12-21T01:58:35.646Z,18.20
2017-12-21T01:59:40.413Z,18.20
2017-12-21T02:00:45.175Z,18.20
2017-12-21T02:01:49.900Z,18.10
2017-12-21T02:02:54.596Z,18.20
2017-12-21T02:03:59.362Z,18.10
2017-12-21T02:05:05.441Z,18.10
2017-12-21T02:06:10.199Z,18.20
2017-12-21T02:07:14.948Z,18.20
2017-12-21T02:08:19.736Z,18.20
2017-12-21T02:09:24.599Z,18.10
2017-12-21T02:10:29.345Z,18.10
2017-12-21T02:11:34.051Z,18.10
2017-12-21T02:12:38.978Z,18.20
2017-12-21T02:13:43.814Z,18.10
2017-12-21T02:14:48.738Z,18.20
2017-12-21T02:15:53.488Z,18.20
2017-12-21T02:16:58.205Z,18.20
2017-12-21T02:18:02.976Z,18.10
2017-12-21T02:19:07.703Z,18.10
2017-12-21T02:20:12.607Z,18.10
2017-12-21T02:21:17.282Z,18.20
2017-12-21T02:22:21.978Z,18.10
2017-12-21T02:23:27.333Z,18.20
2017-12-21T02:24:32.471Z,18.10
2017-12-21T02:25:37.332Z,18.10
2017-12-21T02:26:42.260Z,18.20
2017-12-21T02:27:47.064Z,18.20
2017-12-21T02:28:51.750Z,18.20
2017-12-21T02:29:56.625Z,18.20
2017-12-21T02:31:01.540Z,18.20
2017-12-21T02:32:06.249Z,18.20
2017-12-21T02:33:11.183Z,18.10
2017-12-21T02:34:16.117Z,18.20
2017-12-21T02:35:21.002Z,18.10
2017-12-21T02:36:25.741Z,18.10
2017-12-21T02:37:30.668Z,18.10
2017-12-21T02:38:35.650Z,18.10
2017-12-21T02:39:40.527Z,18.10
2017-12-21T02:40:45.270Z,18.10
2017-12-21T02:41:50.592Z,18.10
2017-12-21T02:42:55.971Z,18.10
2017-12-21T02:44:00.671Z,18.10
2017-12-21T02:45:05.442Z,18.10
2017-12-21T02:46:10.364Z,18.10
2017-12-21T02:47:15.232Z,18.10
2017-12-21T02:48:20.095Z,18.10
2017-12-21T02:49:24.937Z,18.10
2017-12-21T02:50:29.911Z,18.10
2017-12-21T02:51:34.622Z,18.10
2017-12-21T02:52:39.386Z,18.10
2017-12-21T02:53:44.076Z,18.10
2017-12-21T02:54:48.941Z,18.10
2017-12-21T02:55:53.863Z,18.10
2017-12-21T02:56:58.543Z,18.10
2017-12-21T02:58:03.325Z,18.10
2017-12-21T02:59:08.230Z,18.10
2017-12-21T03:00:13.096Z,18.10
2017-12-21T03:01:18.102Z,18.10
2017-12-21T03:02:22.759Z,18.10
2017-12-21T03:03:27.707Z,18.10
2017-12-21T03:04:32.429Z,18.10
2017-12-21T03:05:37.321Z,18.10
2017-12-21T03:06:42.165Z,18.10
2017-12-21T03:07:47.811Z,18.10
2017-12-21T03:08:52.725Z,18.10
2017-12-21T03:09:57.425Z,18.10
2017-12-21T03:11:02.145Z,18.10
2017-12-21T03:12:07.002Z,18.10
2017-12-21T03:13:11.852Z,18.10
2017-12-21T03:14:16.639Z,18.00
2017-12-21T03:15:21.306Z,18.10
2017-12-21T03:16:26.188Z,18.10
2017-12-21T03:17:31.072Z,18.00
2017-12-21T03:18:35.977Z,18.10
2017-12-21T03:19:40.898Z,18.10
2017-12-21T03:20:45.728Z,18.00
2017-12-21T03:21:50.552Z,18.00
2017-12-21T03:22:55.463Z,18.00
2017-12-21T03:24:00.189Z,18.00
2017-12-21T03:25:05.079Z,18.00
2017-12-21T03:26:09.756Z,18.00
2017-12-21T03:27:14.622Z,18.10
2017-12-21T03:28:19.377Z,18.10
2017-12-21T03:29:24.238Z,18.00
2017-12-21T03:30:28.975Z,18.00
2017-12-21T03:31:33.660Z,18.10
2017-12-21T03:32:38.420Z,18.00
2017-12-21T03:33:43.109Z,18.00
2017-12-21T03:34:47.964Z,18.00
2017-12-21T03:35:52.661Z,18.00
2017-12-21T03:36:57.393Z,18.00
2017-12-21T03:38:02.424Z,18.00
2017-12-21T03:39:07.142Z,18.00
2017-12-21T03:40:12.003Z,18.00
2017-12-21T03:41:16.889Z,18.00
2017-12-21T03:42:21.658Z,18.00
2017-12-21T03:43:26.685Z,18.00
2017-12-21T03:44:31.604Z,18.00
2017-12-21T03:45:36.576Z,18.00
2017-12-21T03:46:41.639Z,18.00
2017-12-21T03:47:46.556Z,18.00
2017-12-21T03:48:51.333Z,18.00
2017-12-21T03:49:56.054Z,18.00
2017-12-21T03:51:01.114Z,18.00
2017-12-21T03:52:06.177Z,18.00
2017-12-21T03:53:10.985Z,18.00
2017-12-21T03:54:15.698Z,18.00
2017-12-21T03:55:20.768Z,18.00
2017-12-21T03:56:25.629Z,18.00
2017-12-21T03:57:30.389Z,18.00
2017-12-21T03:58:35.526Z,18.00
2017-12-21T03:59:40.334Z,18.00
2017-12-21T04:00:45.096Z,18.00
2017-12-21T04:01:50.415Z,18.00
2017-12-21T04:02:55.895Z,18.00
2017-12-21T04:04:00.837Z,18.00
2017-12-21T04:05:05.816Z,18.00
2017-12-21T04:06:10.796Z,18.00
2017-12-21T04:07:15.749Z,18.00
2017-12-21T04:08:20.552Z,18.00
2017-12-21T04:09:25.462Z,18.00
2017-12-21T04:10:30.368Z,18.00
2017-12-21T04:11:35.326Z,18.00
2017-12-21T04:12:40.137Z,18.00
2017-12-21T04:13:44.944Z,18.00
2017-12-21T04:14:49.744Z,18.00
2017-12-21T04:15:54.806Z,18.00
2017-12-21T04:16:59.665Z,18.00
2017-12-21T04:18:04.623Z,18.00
2017-12-21T04:19:09.404Z,18.00
2017-12-21T04:20:14.303Z,18.00
2017-12-21T04:21:19.072Z,18.00
2017-12-21T04:22:24.026Z,18.00
2017-12-21T04:23:28.842Z,18.00
2017-12-21T04:24:33.732Z,18.00
2017-12-21T04:25:38.496Z,18.00
2017-12-21T04:26:43.294Z,18.00
2017-12-21T04:27:48.070Z,18.00
2017-12-21T04:28:52.950Z,18.00
2017-12-21T04:29:57.740Z,18.00
2017-12-21T04:31:02.793Z,18.00
2017-12-21T04:32:07.773Z,18.00
2017-12-21T04:33:12.713Z,18.00
2017-12-21T04:34:17.679Z,18.00
2017-12-21T04:35:23.020Z,18.00
2017-12-21T04:36:28.151Z,18.00
2017-12-21T04:37:33.036Z,17.90
2017-12-21T04:38:37.798Z,18.00
2017-12-21T04:39:42.701Z,18.00
2017-12-21T04:40:47.632Z,18.00
2017-12-21T04:41:52.426Z,18.00
2017-12-21T04:42:57.358Z,18.00
2017-12-21T04:44:02.275Z,18.00
2017-12-21T04:45:07.093Z,18.00
2017-12-21T04:46:11.935Z,18.00
2017-12-21T04:47:16.858Z,18.00
2017-12-21T04:48:21.752Z,18.00
2017-12-21T04:49:26.650Z,18.00
2017-12-21T04:50:31.411Z,18.00
2017-12-21T04:51:36.310Z,18.00
2017-12-21T04:52:41.205Z,18.00
2017-12-21T04:53:46.721Z,18.00
2017-12-21T04:54:51.631Z,18.00
2017-12-21T04:55:56.571Z,18.00
2017-12-21T04:57:01.565Z,18.00
2017-12-21T04:58:06.427Z,18.00
2017-12-21T04:59:11.465Z,17.90
2017-12-21T05:00:16.255Z,18.00
2017-12-21T05:01:21.088Z,18.00
2017-12-21T05:02:26.041Z,17.90
2017-12-21T05:03:31.026Z,17.90
2017-12-21T05:04:35.752Z,18.00
2017-12-21T05:05:40.512Z,17.90
2017-12-21T05:06:45.428Z,17.90
2017-12-21T05:07:50.183Z,17.90
2017-12-21T05:08:55.134Z,18.00
2017-12-21T05:09:59.863Z,18.00
2017-12-21T05:11:04.726Z,17.90
2017-12-21T05:12:10.514Z,17.90
2017-12-21T05:13:15.378Z,17.90
2017-12-21T05:14:20.169Z,18.00
2017-12-21T05:15:25.047Z,18.00
2017-12-21T05:16:29.845Z,18.00
2017-12-21T05:17:34.700Z,17.90
2017-12-21T05:18:39.757Z,17.90
2017-12-21T05:19:44.575Z,17.90
2017-12-21T05:20:49.386Z,17.90
2017-12-21T05:21:54.287Z,17.90
2017-12-21T05:22:59.167Z,18.00
2017-12-21T05:24:04.214Z,17.90
2017-12-21T05:25:09.185Z,17.90
2017-12-21T05:26:14.181Z,17.90
2017-12-21T05:27:19.254Z,18.00
2017-12-21T05:28:24.279Z,17.90
2017-12-21T05:29:29.271Z,17.90
2017-12-21T05:30:34.628Z,17.90
2017-12-21T05:31:39.507Z,17.90
2017-12-21T05:32:44.313Z,17.90
2017-12-21T05:33:49.354Z,17.90
2017-12-21T05:34:54.336Z,17.90
2017-12-21T05:35:59.140Z,17.90
2017-12-21T05:37:04.053Z,18.00
2017-12-21T05:38:09.046Z,17.90
2017-12-21T05:39:13.891Z,18.00
2017-12-21T05:40:18.620Z,17.90
2017-12-21T05:41:23.534Z,17.90
2017-12-21T05:42:28.366Z,17.90
2017-12-21T05:43:33.125Z,17.90
2017-12-21T05:44:38.009Z,17.90
2017-12-21T05:45:42.820Z,18.00
2017-12-21T05:46:47.841Z,17.90
2017-12-21T05:47:52.803Z,17.90
2017-12-21T05:48:58.429Z,18.00
2017-12-21T05:50:03.477Z,17.90
2017-12-21T05:51:08.473Z,17.90
2017-12-21T05:52:13.191Z,17.90
2017-12-21T05:53:17.998Z,17.90
2017-12-21T05:54:22.727Z,17.90
2017-12-21T05:55:27.718Z,17.90
2017-12-21T05:56:32.674Z,17.90
2017-12-21T05:57:37.654Z,17.90
2017-12-21T05:58:42.652Z,17.90
2017-12-21T05:59:47.836Z,17.90
2017-12-21T06:00:52.580Z,18.00
2017-12-21T06:01:57.519Z,17.90
2017-12-21T06:03:02.542Z,18.00
2017-12-21T06:04:08.223Z,17.90
2017-12-21T06:05:13.279Z,17.90
2017-12-21T06:06:17.998Z,17.90
2017-12-21T06:07:23.435Z,17.90
2017-12-21T06:08:28.190Z,17.90
2017-12-21T06:09:33.858Z,17.90
2017-12-21T06:10:38.757Z,17.90
2017-12-21T06:11:43.557Z,17.90
2017-12-21T06:12:48.316Z,17.90
2017-12-21T06:13:53.109Z,17.90
2017-12-21T06:14:58.086Z,17.90
2017-12-21T06:16:03.059Z,17.90
2017-12-21T06:17:07.931Z,17.90
2017-12-21T06:18:12.754Z,17.90
2017-12-21T06:19:17.619Z,17.90
2017-12-21T06:20:22.421Z,17.90
2017-12-21T06:21:27.170Z,17.90
2017-12-21T06:22:32.136Z,17.90
2017-12-21T06:23:36.923Z,17.90
2017-12-21T06:24:41.733Z,17.90
2017-12-21T06:25:47.268Z,17.90
2017-12-21T06:26:52.085Z,17.90
2017-12-21T06:27:56.877Z,17.90
2017-12-21T06:29:01.892Z,18.00
2017-12-21T06:30:06.926Z,18.00
2017-12-21T06:31:11.774Z,18.10
2017-12-21T06:32:16.938Z,18.10
2017-12-21T06:33:21.707Z,18.20
2017-12-21T06:34:26.452Z,18.20
2017-12-21T06:35:31.569Z,18.30
2017-12-21T06:36:36.665Z,18.40
2017-12-21T06:37:41.551Z,18.50
2017-12-21T06:38:46.577Z,18.60
2017-12-21T06:39:51.697Z,18.70
2017-12-21T06:40:56.830Z,18.80
2017-12-21T06:42:01.950Z,18.90
2017-12-21T06:43:07.060Z,19.10
2017-12-21T06:44:12.496Z,19.20
2017-12-21T06:45:17.521Z,19.30
2017-12-21T06:46:22.251Z,19.40
2017-12-21T06:47:27.262Z,19.50
2017-12-21T06:48:32.374Z,19.50
2017-12-21T06:49:37.535Z,19.60
2017-12-21T06:50:42.626Z,19.70
2017-12-21T06:51:48.516Z,19.70
2017-12-21T06:52:53.669Z,19.80
2017-12-21T06:53:58.865Z,19.80
2017-12-21T06:55:04.156Z,19.90
2017-12-21T06:56:09.286Z,19.90
2017-12-21T06:57:14.285Z,20.00
2017-12-21T06:58:19.234Z,20.00
2017-12-21T06:59:24.351Z,20.00
2017-12-21T07:00:29.196Z,20.00
2017-12-21T07:01:34.238Z,20.00
2017-12-21T07:02:39.076Z,20.00
2017-12-21T07:03:44.358Z,20.00
2017-12-21T07:04:49.149Z,20.10
2017-12-21T07:05:53.939Z,20.00
2017-12-21T07:06:59.011Z,19.90
2017-12-21T07:08:04.116Z,19.90
2017-12-21T07:09:09.332Z,19.80
2017-12-21T07:10:14.225Z,19.80
2017-12-21T07:11:19.103Z,19.80
2017-12-21T07:12:24.042Z,19.80
2017-12-21T07:13:29.009Z,19.80
2017-12-21T07:14:34.174Z,19.70
2017-12-21T07:15:39.199Z,19.60
2017-12-21T07:16:44.298Z,19.60
2017-12-21T07:17:49.196Z,19.60
2017-12-21T07:18:54.318Z,19.60
2017-12-21T07:19:59.092Z,19.70
2017-12-21T07:21:03.876Z,19.70
2017-12-21T07:22:08.956Z,19.70
2017-12-21T07:23:13.743Z,19.70
2017-12-21T07:24:18.743Z,19.70
2017-12-21T07:25:23.665Z,19.80
2017-12-21T07:26:28.834Z,19.80
2017-12-21T07:27:34.206Z,19.80
2017-12-21T07:28:39.230Z,19.80
2017-12-21T07:29:44.039Z,19.80
2017-12-21T07:30:49.000Z,19.70
2017-12-21T07:31:53.750Z,19.70
2017-12-21T07:32:58.884Z,19.70
2017-12-21T07:34:03.694Z,19.70
2017-12-21T07:35:08.513Z,19.70
2017-12-21T07:36:13.363Z,19.70
2017-12-21T07:37:19.103Z,19.70
2017-12-21T07:38:24.218Z,19.70
2017-12-21T07:39:29.379Z,19.70
2017-12-21T07:40:34.517Z,19.70
2017-12-21T07:41:39.686Z,19.70
2017-12-21T07:42:44.916Z,19.70
2017-12-21T07:43:49.682Z,19.70
2017-12-21T07:44:54.949Z,19.70
2017-12-21T07:46:00.360Z,19.70
2017-12-21T07:47:05.319Z,19.70
2017-12-21T07:48:10.312Z,19.70
2017-12-21T07:49:15.254Z,19.60
2017-12-21T07:50:20.263Z,19.60
2017-12-21T07:51:25.121Z,19.60
2017-12-21T07:52:30.187Z,19.60
2017-12-21T07:53:35.397Z,19.60
2017-12-21T07:54:41.061Z,19.50
2017-12-21T07:55:46.002Z,19.50
2017-12-21T07:56:52.040Z,19.40
2017-12-21T07:57:57.204Z,19.30
2017-12-21T07:59:02.315Z,19.30
2017-12-21T08:00:07.563Z,19.30
2017-12-21T08:01:12.387Z,19.30
2017-12-21T08:02:17.429Z,19.30
2017-12-21T08:03:22.445Z,19.20
2017-12-21T08:04:27.294Z,19.20
2017-12-21T08:05:32.770Z,19.20
2017-12-21T08:06:38.487Z,19.20
2017-12-21T08:07:43.637Z,19.20
2017-12-21T08:08:48.705Z,19.20
2017-12-21T08:09:54.515Z,19.20
2017-12-21T08:10:59.461Z,19.20
2017-12-21T08:12:04.569Z,19.20
2017-12-21T08:13:09.869Z,19.20
2017-12-21T08:14:14.715Z,19.20
2017-12-21T08:15:19.872Z,19.20
2017-12-21T08:16:24.912Z,19.20
2017-12-21T08:17:29.983Z,19.20
2017-12-21T08:18:34.947Z,19.20
2017-12-21T08:19:39.977Z,19.20
2017-12-21T08:20:44.820Z,19.20
2017-12-21T08:21:49.840Z,19.20
2017-12-21T08:22:55.910Z,19.20
2017-12-21T08:24:02.346Z,19.20
2017-12-21T08:25:07.508Z,19.30
2017-12-21T08:26:12.469Z,19.30
2017-12-21T08:27:19.295Z,19.30
2017-12-21T08:28:24.169Z,19.30
2017-12-21T08:29:30.405Z,19.30
2017-12-21T08:30:35.327Z,19.30
2017-12-21T08:31:40.367Z,19.40
2017-12-21T08:32:45.219Z,19.40
2017-12-21T08:33:50.300Z,19.40
2017-12-21T08:34:55.152Z,19.40
2017-12-21T08:36:00.078Z,19.40
2017-12-21T08:37:05.129Z,19.40
2017-12-21T08:38:10.262Z,19.30
2017-12-21T08:39:15.097Z,19.30
2017-12-21T08:40:20.518Z,19.30
2017-12-21T08:41:25.431Z,19.20
2017-12-21T08:42:30.390Z,19.20
2017-12-21T08:43:35.229Z,19.20
2017-12-21T08:44:40.135Z,19.20
2017-12-21T08:45:44.941Z,19.20
2017-12-21T08:46:50.083Z,19.20
2017-12-21T08:47:54.884Z,19.20
2017-12-21T08:48:59.884Z,19.20
2017-12-21T08:50:04.715Z,19.20
2017-12-21T08:51:09.537Z,19.20
2017-12-21T08:52:14.559Z,19.10
2017-12-21T08:53:19.584Z,19.10
2017-12-21T08:54:24.512Z,19.10
2017-12-21T08:55:29.648Z,19.10
2017-12-21T08:56:34.776Z,19.10
2017-12-21T08:57:39.817Z,19.00
2017-12-21T08:58:44.688Z,19.00
2017-12-21T08:59:49.540Z,19.00
2017-12-21T09:00:54.418Z,18.90
2017-12-21T09:01:59.413Z,18.90
2017-12-21T09:03:04.193Z,18.90
2017-12-21T09:04:09.332Z,18.90
2017-12-21T09:05:14.474Z,18.90
2017-12-21T09:06:20.050Z,19.00
2017-12-21T09:07:24.959Z,19.00
2017-12-21T09:08:29.973Z,19.00
2017-12-21T09:09:34.952Z,19.00
2017-12-21T09:10:39.991Z,19.00
2017-12-21T09:11:44.838Z,19.00
2017-12-21T09:12:49.718Z,18.90
2017-12-21T09:13:54.917Z,18.90
2017-12-21T09:15:00.044Z,18.90
2017-12-21T09:16:05.101Z,18.90
2017-12-21T09:17:10.258Z,18.80
2017-12-21T09:18:15.235Z,18.80
2017-12-21T09:19:20.296Z,18.80
2017-12-21T09:20:25.417Z,18.80
2017-12-21T09:21:30.889Z,18.80
2017-12-21T09:22:35.949Z,18.80
2017-12-21T09:23:41.049Z,18.80
2017-12-21T09:24:46.078Z,18.80
2017-12-21T09:25:51.148Z,18.80
2017-12-21T09:26:56.027Z,18.80
2017-12-21T09:28:01.203Z,18.80
2017-12-21T09:29:06.593Z,18.80
2017-12-21T09:30:11.714Z,18.80
2017-12-21T09:31:16.712Z,18.80
2017-12-21T09:32:21.641Z,18.80
2017-12-21T09:33:27.232Z,18.80
2017-12-21T09:34:32.169Z,18.80
2017-12-21T09:35:37.324Z,18.70
2017-12-21T09:36:42.423Z,18.80
2017-12-21T09:37:47.856Z,18.80
2017-12-21T09:38:53.380Z,18.70
2017-12-21T09:39:59.124Z,18.70
2017-12-21T09:41:04.112Z,18.70
2017-12-21T09:42:09.624Z,18.70
2017-12-21T09:43:14.650Z,18.70
2017-12-21T09:44:19.642Z,18.70
2017-12-21T09:45:24.540Z,18.70
2017-12-21T09:46:29.567Z,18.60
2017-12-21T09:47:34.617Z,18.60
2017-12-21T09:48:39.787Z,18.60
2017-12-21T09:49:45.059Z,18.60
2017-12-21T09:50:50.885Z,18.60
2017-12-21T09:51:55.798Z,18.60
2017-12-21T09:53:00.724Z,18.60
2017-12-21T09:54:06.361Z,18.60
2017-12-21T09:55:11.179Z,18.60
2017-12-21T09:56:16.429Z,18.50
2017-12-21T09:57:21.215Z,18.50
2017-12-21T09:58:26.017Z,18.50
2017-12-21T09:59:30.796Z,18.50
2017-12-21T10:00:35.819Z,18.50
2017-12-21T10:01:43.742Z,18.50
2017-12-21T10:02:49.031Z,18.50
2017-12-21T10:03:53.788Z,18.50
2017-12-21T10:04:58.786Z,18.50
2017-12-21T10:06:03.662Z,18.50
2017-12-21T10:07:08.789Z,18.50
2017-12-21T10:08:13.585Z,18.60
2017-12-21T10:09:18.445Z,18.60
2017-12-21T10:10:23.443Z,18.60
2017-12-21T10:11:28.258Z,18.60
2017-12-21T10:12:33.546Z,18.60
2017-12-21T10:13:38.423Z,18.60
2017-12-21T10:14:43.881Z,18.60
2017-12-21T10:15:48.854Z,18.60
2017-12-21T10:16:53.785Z,18.60
2017-12-21T10:17:58.828Z,18.50
2017-12-21T10:19:03.968Z,18.60
2017-12-21T10:20:09.171Z,18.60
2017-12-21T10:21:14.312Z,18.60
2017-12-21T10:22:19.170Z,18.60
2017-12-21T10:23:24.277Z,18.60
2017-12-21T10:24:30.197Z,18.60
2017-12-21T10:25:36.310Z,18.60
2017-12-21T10:26:41.469Z,18.60
2017-12-21T10:27:46.518Z,18.60
2017-12-21T10:28:51.297Z,18.60
2017-12-21T10:29:56.066Z,18.60
2017-12-21T10:31:01.125Z,18.50
2017-12-21T10:32:05.967Z,18.50
2017-12-21T10:33:10.955Z,18.50
2017-12-21T10:34:16.558Z,18.50
2017-12-21T10:35:21.967Z,18.50
2017-12-21T10:36:27.316Z,18.50
2017-12-21T10:37:32.133Z,18.50
2017-12-21T10:38:37.161Z,18.50
2017-12-21T10:39:41.920Z,18.50
2017-12-21T10:40:46.884Z,18.50
2017-12-21T10:41:52.030Z,18.50
2017-12-21T10:42:58.511Z,18.50
2017-12-21T10:44:03.596Z,18.60
2017-12-21T10:45:08.539Z,18.60
2017-12-21T10:46:13.559Z,18.60
2017-12-21T10:47:18.665Z,18.60
2017-12-21T10:48:23.378Z,18.60
2017-12-21T10:49:28.341Z,18.60
2017-12-21T10:50:33.448Z,18.60
2017-12-21T10:51:38.234Z,18.60
2017-12-21T10:52:43.206Z,18.70
2017-12-21T10:53:47.988Z,18.70
2017-12-21T10:54:53.050Z,18.60
2017-12-21T10:55:58.069Z,18.60
2017-12-21T10:57:03.132Z,18.60
2017-12-21T10:58:08.178Z,18.60
2017-12-21T10:59:13.278Z,18.50
2017-12-21T11:00:18.227Z,18.50
2017-12-21T11:01:23.939Z,18.50
2017-12-21T11:02:29.454Z,18.50
2017-12-21T11:03:34.901Z,18.50
2017-12-21T11:04:39.942Z,18.50
2017-12-21T11:05:44.911Z,18.50
2017-12-21T11:06:49.892Z,18.50
2017-12-21T11:07:55.135Z,18.40
2017-12-21T11:09:00.040Z,18.40
2017-12-21T11:10:05.525Z,18.50
2017-12-21T11:11:10.358Z,18.50
2017-12-21T11:12:15.280Z,18.50
2017-12-21T11:13:20.314Z,18.50
2017-12-21T11:14:25.358Z,18.50
2017-12-21T11:15:30.104Z,18.50
2017-12-21T11:16:35.929Z,18.50
2017-12-21T11:17:41.760Z,18.50
2017-12-21T11:18:47.207Z,18.40
2017-12-21T11:19:52.187Z,18.40
2017-12-21T11:20:57.157Z,18.40
2017-12-21T11:22:02.441Z,18.40
2017-12-21T11:23:07.892Z,18.50
2017-12-21T11:24:13.119Z,18.50
2017-12-21T11:25:18.554Z,18.50
2017-12-21T11:26:23.582Z,18.50
2017-12-21T11:27:28.599Z,18.50
2017-12-21T11:28:33.682Z,18.50
2017-12-21T11:29:38.783Z,18.50
2017-12-21T11:30:43.752Z,18.60
2017-12-21T11:31:48.794Z,18.50
2017-12-21T11:32:53.656Z,18.50
2017-12-21T11:33:58.724Z,18.50
2017-12-21T11:35:03.636Z,18.50
2017-12-21T11:36:09.018Z,18.50
2017-12-21T11:37:14.283Z,18.60
2017-12-21T11:38:19.126Z,18.60
2017-12-21T11:39:24.052Z,18.60
2017-12-21T11:40:28.909Z,18.60
2017-12-21T11:41:34.610Z,18.60
2017-12-21T11:42:39.501Z,18.60
2017-12-21T11:43:44.424Z,18.60
2017-12-21T11:44:49.281Z,18.60
2017-12-21T11:45:54.182Z,18.60
2017-12-21T11:46:59.695Z,18.60
2017-12-21T11:48:04.496Z,18.60
2017-12-21T11:49:09.460Z,18.60
2017-12-21T11:50:14.487Z,18.60
2017-12-21T11:51:19.521Z,18.60
2017-12-21T11:52:24.673Z,18.60
2017-12-21T11:53:29.504Z,18.70
2017-12-21T11:54:34.570Z,18.60
2017-12-21T11:55:39.547Z,18.60
2017-12-21T11:56:44.351Z,18.60
2017-12-21T11:57:49.210Z,18.70
2017-12-21T11:58:54.207Z,18.70
2017-12-21T11:59:58.998Z,18.70
2017-12-21T12:01:04.013Z,18.70
2017-12-21T12:02:09.988Z,18.60
2017-12-21T12:03:14.920Z,18.60
2017-12-21T12:04:20.012Z,18.60
2017-12-21T12:05:25.163Z,18.60
2017-12-21T12:06:30.184Z,18.60
2017-12-21T12:07:35.491Z,18.60
2017-12-21T12:08:40.426Z,18.60
2017-12-21T12:09:45.462Z,18.60
2017-12-21T12:10:50.971Z,18.60
2017-12-21T12:12:07.708Z,18.60
2017-12-21T12:13:12.583Z,18.60
2017-12-21T12:14:17.645Z,18.60
2017-12-21T12:15:22.688Z,18.60
2017-12-21T12:16:27.763Z,18.60
2017-12-21T12:17:32.907Z,18.60
2017-12-21T12:18:38.025Z,18.60
2017-12-21T12:19:43.028Z,18.60
2017-12-21T12:20:47.932Z,18.70
2017-12-21T12:21:52.872Z,18.60
2017-12-21T12:22:58.015Z,18.60
2017-12-21T12:24:03.431Z,18.60
2017-12-21T12:25:08.863Z,18.60
2017-12-21T12:26:13.973Z,18.60
2017-12-21T12:27:19.263Z,18.60
2017-12-21T12:28:24.482Z,18.60
2017-12-21T12:29:29.385Z,18.70
2017-12-21T12:30:34.270Z,18.60
2017-12-21T12:31:39.115Z,18.60
2017-12-21T12:32:44.002Z,18.60
2017-12-21T12:33:49.301Z,18.60
2017-12-21T12:34:54.582Z,18.60
2017-12-21T12:36:00.392Z,18.70
2017-12-21T12:37:05.684Z,18.60
2017-12-21T12:38:11.435Z,18.60
2017-12-21T12:39:16.771Z,18.60
2017-12-21T12:40:21.838Z,18.60
2017-12-21T12:41:27.027Z,18.60
2017-12-21T12:42:32.307Z,18.60
2017-12-21T12:43:37.450Z,18.70
2017-12-21T12:44:42.498Z,18.70
2017-12-21T12:45:47.545Z,18.70
2017-12-21T12:46:52.550Z,18.70
2017-12-21T12:47:57.574Z,18.60
2017-12-21T12:49:02.678Z,18.60
2017-12-21T12:50:07.604Z,18.60
2017-12-21T12:51:15.740Z,18.60
2017-12-21T12:52:20.673Z,18.60
2017-12-21T12:53:26.070Z,18.70
2017-12-21T12:54:31.210Z,18.70
2017-12-21T12:55:36.147Z,18.70
2017-12-21T12:56:41.081Z,18.70
2017-12-21T12:57:46.132Z,18.70
2017-12-21T12:58:51.136Z,18.70
2017-12-21T12:59:56.173Z,18.70
2017-12-21T13:01:00.995Z,18.70
2017-12-21T13:02:05.799Z,18.70
2017-12-21T13:03:11.274Z,18.70
2017-12-21T13:04:16.205Z,18.70
2017-12-21T13:05:21.485Z,18.70
2017-12-21T13:06:26.569Z,18.70
2017-12-21T13:07:31.905Z,18.70
2017-12-21T13:08:36.971Z,18.70
2017-12-21T13:09:41.966Z,18.80
2017-12-21T13:10:46.913Z,18.80
2017-12-21T13:11:52.037Z,18.80
2017-12-21T13:12:56.958Z,18.80
2017-12-21T13:14:02.133Z,18.80
2017-12-21T13:15:07.118Z,18.80
2017-12-21T13:16:12.900Z,18.80
2017-12-21T13:17:17.902Z,18.80
2017-12-21T13:18:23.297Z,18.80
2017-12-21T13:19:28.138Z,18.80
2017-12-21T13:20:32.975Z,18.80
2017-12-21T13:21:38.978Z,18.80
2017-12-21T13:22:43.825Z,18.80
2017-12-21T13:23:48.683Z,18.80
2017-12-21T13:24:53.500Z,18.80
2017-12-21T13:25:58.519Z,18.80
2017-12-21T13:27:03.549Z,18.80
2017-12-21T13:28:08.769Z,18.70
2017-12-21T13:29:13.546Z,18.70
2017-12-21T13:30:18.458Z,18.70
2017-12-21T13:31:23.202Z,18.70
2017-12-21T13:32:28.993Z,18.60
2017-12-21T13:33:33.807Z,18.60
2017-12-21T13:34:38.884Z,18.60
2017-12-21T13:35:43.911Z,18.60
2017-12-21T13:36:48.911Z,18.60
2017-12-21T13:37:53.800Z,18.60
2017-12-21T13:38:58.709Z,18.70
2017-12-21T13:40:04.285Z,18.70
2017-12-21T13:41:09.337Z,18.70
2017-12-21T13:42:14.282Z,18.70
2017-12-21T13:43:19.053Z,18.70
2017-12-21T13:44:24.149Z,18.60
2017-12-21T13:45:29.047Z,18.60
2017-12-21T13:46:34.104Z,18.60
2017-12-21T13:47:38.966Z,18.60
2017-12-21T13:48:44.004Z,18.60
2017-12-21T13:49:48.981Z,18.60
2017-12-21T13:50:54.080Z,18.60
2017-12-21T13:51:59.438Z,18.60
2017-12-21T13:53:04.440Z,18.60
2017-12-21T13:54:09.296Z,18.60
2017-12-21T13:55:14.263Z,18.70
2017-12-21T13:56:19.110Z,18.70
2017-12-21T13:57:24.241Z,18.70